Dades meteomassalio
Diari Summary for Octubre 25, 2017 Units:  Metric    English   Both
« Previous Day
Next Day »
Diari Semanal Mensual Anual Personalitzat
  Maxima: Minima: Mijana:
Temperatura: -17.8 °C -15.9 °C -10.7 °C
Rosada: -17.8 °C -18.7 °C -15.9 °C
Humitat: Humidity % 31 % 55 %
Velocitat del vent: 0 km/h 0 km/h 5.6 km/h
Racha vent: 0 km/h - -
Vent:- - West
Pressio: 0 hPa 34703.1 hPa -
Pluja: 0 mm    
Historical Graphs
 
 
Tabular Data for Octubre 25, 2017
Time Temperature Dew Point Pressure Wind Wind Speed Wind Gust Humidity Rainfall Rate (Hourly) solar Conditions
-17.8 °C -17.8 °C 0 hPa Calm     Humidity % 0 mm SolarRadiationWatts/m^2 W/m2 Conditions
00:01 -13.2 °C -17.4 °C 34760.7 hPa Calm     58 % 0 mm 0.0 W/m2 CLR
00:06 -13.4 °C -17.8 °C 34760.7 hPa Calm     58 % 0 mm 0.0 W/m2 CLR
00:11 -13.4 °C -17.6 °C 34760.7 hPa Calm     59 % 0 mm 0.0 W/m2 CLR
00:16 -13.4 °C -17.6 °C 34760.7 hPa Calm     59 % 0 mm 0.0 W/m2 CLR
00:21 -13.4 °C -17.6 °C 34760.7 hPa Calm     59 % 0 mm 0.0 W/m2 CLR
00:26 -13.2 °C -17.2 °C 34760.7 hPa Calm     60 % 0 mm 0.0 W/m2 CLR
00:31 -13.2 °C -17.2 °C 34760.7 hPa Calm     60 % 0 mm 0.0 W/m2 CLR
00:36 -13.2 °C -17.3 °C 34760.7 hPa Calm     59 % 0 mm 0.0 W/m2 CLR
00:41 -13.4 °C -17.6 °C 34760.7 hPa Calm     59 % 0 mm 0.0 W/m2 CLR
00:46 -13.4 °C -17.5 °C 34760.7 hPa Calm     60 % 0 mm 0.0 W/m2 CLR
00:51 -13.8 °C -17.8 °C 34760.7 hPa Calm     60 % 0 mm 0.0 W/m2 CLR
00:56 -13.8 °C -17.7 °C 34760.7 hPa Calm     61 % 0 mm 0.0 W/m2 CLR
01:01 -14.1 °C -17.9 °C 34760.7 hPa Calm     61 % 0 mm 0.0 W/m2 CLR
01:06 -14.1 °C -17.9 °C 34760.7 hPa Calm     61 % 0 mm 0.0 W/m2 CLR
01:11 -14.1 °C -17.8 °C 34760.7 hPa Calm     62 % 0 mm 0.0 W/m2 CLR
01:16 -14.1 °C -17.8 °C 34760.7 hPa Calm     62 % 0 mm 0.0 W/m2 CLR
01:21 -14.1 °C -17.8 °C 34760.7 hPa Calm     62 % 0 mm 0.0 W/m2 CLR
01:26 -14.1 °C -17.9 °C 34760.7 hPa Calm     61 % 0 mm 0.0 W/m2 CLR
01:31 -14.1 °C -17.9 °C 34760.7 hPa Calm     61 % 0 mm 0.0 W/m2 CLR
01:36 -14.4 °C -18.2 °C 34750.5 hPa Calm     61 % 0 mm 0.0 W/m2 CLR
01:41 -14.4 °C -18.4 °C 34750.5 hPa Calm     60 % 0 mm 0.0 W/m2 CLR
01:46 -14.4 °C -18.4 °C 34760.7 hPa Calm     60 % 0 mm 0.0 W/m2 CLR
01:51 -14.4 °C -18.4 °C 34750.5 hPa Calm     60 % 0 mm 0.0 W/m2 CLR
01:56 -14.4 °C -18.2 °C 34760.7 hPa Calm     61 % 0 mm 0.0 W/m2 CLR
02:01 -14.4 °C -18.1 °C 34760.7 hPa Calm     62 % 0 mm 0.0 W/m2 CLR
02:06 -14.4 °C -18 °C 34760.7 hPa Calm     63 % 0 mm 0.0 W/m2 CLR
02:11 -14.4 °C -18 °C 34760.7 hPa Calm     63 % 0 mm 0.0 W/m2 CLR
02:16 -14.1 °C -17.7 °C 34760.7 hPa Calm     63 % 0 mm 0.0 W/m2 CLR
02:21 -14.1 °C -17.7 °C 34760.7 hPa Calm     63 % 0 mm 0.0 W/m2 CLR
02:26 -14.1 °C -17.7 °C 34760.7 hPa Calm     63 % 0 mm 0.0 W/m2 CLR
02:31 -13.8 °C -17.4 °C 34760.7 hPa Calm     63 % 0 mm 0.0 W/m2 CLR
02:36 -13.8 °C -17.3 °C 34760.7 hPa Calm     64 % 0 mm 0.0 W/m2 CLR
02:41 -13.8 °C -17.3 °C 34760.7 hPa Calm     64 % 0 mm 0.0 W/m2 CLR
02:46 -14.1 °C -17.6 °C 34760.7 hPa Calm     64 % 0 mm 0.0 W/m2 CLR
02:51 -14.1 °C -17.7 °C 34760.7 hPa Calm     63 % 0 mm 0.0 W/m2 CLR
02:56 -14.4 °C -18 °C 34760.7 hPa Calm     63 % 0 mm 0.0 W/m2 CLR
03:01 -14.4 °C -18 °C 34760.7 hPa Calm     63 % 0 mm 0.0 W/m2 CLR
03:06 -14.7 °C -18.2 °C 34760.7 hPa Calm     64 % 0 mm 0.0 W/m2 CLR
03:11 -14.7 °C -18.2 °C 34760.7 hPa Calm     64 % 0 mm 0.0 W/m2 CLR
03:16 -15 °C -18.4 °C 34760.7 hPa Calm     65 % 0 mm 0.0 W/m2 CLR
03:21 -15 °C -18.4 °C 34760.7 hPa Calm     65 % 0 mm 0.0 W/m2 CLR
03:26 -15 °C -18.2 °C 34760.7 hPa Calm     66 % 0 mm 0.0 W/m2 CLR
03:31 -15 °C -18.2 °C 34760.7 hPa Calm     66 % 0 mm 0.0 W/m2 CLR
03:36 -15 °C -18.4 °C 34760.7 hPa Calm     65 % 0 mm 0.0 W/m2 CLR
03:41 -15 °C -18.4 °C 34760.7 hPa Calm     65 % 0 mm 0.0 W/m2 CLR
03:46 -15 °C -18.5 °C 34774.2 hPa Calm     64 % 0 mm 0.0 W/m2 CLR
03:51 -15 °C -18.5 °C 34774.2 hPa Calm     64 % 0 mm 0.0 W/m2 CLR
03:56 -14.7 °C -18.2 °C 34774.2 hPa Calm     64 % 0 mm 0.0 W/m2 CLR
04:01 -14.7 °C -18.1 °C 34774.2 hPa Calm     65 % 0 mm 0.0 W/m2 CLR
04:06 -14.7 °C -17.9 °C 34774.2 hPa Calm     66 % 0 mm 0.0 W/m2 CLR
04:11 -14.7 °C -17.8 °C 34774.2 hPa Calm     67 % 0 mm 0.0 W/m2 CLR
04:16 -14.7 °C -17.8 °C 34774.2 hPa Calm     67 % 0 mm 0.0 W/m2 CLR
04:21 -15 °C -18 °C 34760.7 hPa Calm     68 % 0 mm 0.0 W/m2 CLR
04:26 -14.7 °C -17.7 °C 34760.7 hPa Calm     68 % 0 mm 0.0 W/m2 CLR
04:31 -15 °C -18 °C 34760.7 hPa Calm     68 % 0 mm 0.0 W/m2 CLR
04:36 -15 °C -18 °C 34760.7 hPa Calm     68 % 0 mm 0.0 W/m2 CLR
04:41 -15 °C -18 °C 34760.7 hPa Calm     68 % 0 mm 0.0 W/m2 CLR
04:46 -15 °C -18 °C 34760.7 hPa Calm     68 % 0 mm 0.0 W/m2 CLR
04:51 -15 °C -18.1 °C 34760.7 hPa Calm     67 % 0 mm 0.0 W/m2 CLR
04:56 -15.3 °C -18.4 °C 34760.7 hPa Calm     67 % 0 mm 0.0 W/m2 CLR
05:01 -15.3 °C -18.3 °C 34760.7 hPa Calm     68 % 0 mm 0.0 W/m2 CLR
05:06 -15.3 °C -18.2 °C 34760.7 hPa Calm     69 % 0 mm 0.0 W/m2 CLR
05:11 -15.3 °C -18.2 °C 34760.7 hPa Calm     69 % 0 mm 0.0 W/m2 CLR
05:16 -15.3 °C -18.2 °C 34760.7 hPa Calm     69 % 0 mm 0.0 W/m2 CLR
05:21 -15.3 °C -18.3 °C 34760.7 hPa Calm     68 % 0 mm 0.0 W/m2 CLR
05:26 -15.3 °C -18.3 °C 34750.5 hPa Calm     68 % 0 mm 0.0 W/m2 CLR
05:32 -15.6 °C -18.5 °C 34750.5 hPa Calm     69 % 0 mm 0.0 W/m2 CLR
05:37 -15.6 °C -18.5 °C 34750.5 hPa Calm     69 % 0 mm 0.0 W/m2 CLR
05:42 -15.6 °C -18.4 °C 34750.5 hPa Calm     70 % 0 mm 0.0 W/m2 CLR
05:47 -15.6 °C -18.4 °C 34750.5 hPa Calm     70 % 0 mm 0.0 W/m2 CLR
05:52 -15.6 °C -18.4 °C 34750.5 hPa Calm     70 % 0 mm 0.0 W/m2 CLR
05:57 -15.6 °C -18.4 °C 34750.5 hPa Calm     70 % 0 mm 0.0 W/m2 CLR
06:02 -15.9 °C -18.7 °C 34750.5 hPa Calm     70 % 0 mm 0.0 W/m2 CLR
06:07 -15.9 °C -18.7 °C 34750.5 hPa Calm     70 % 0 mm 0.0 W/m2 CLR
06:12 -15.9 °C -18.6 °C 34750.5 hPa Calm     71 % 0 mm 0.0 W/m2 CLR
06:17 -15.9 °C -18.6 °C 34750.5 hPa Calm     71 % 0 mm 0.0 W/m2 CLR
06:22 -15.9 °C -18.6 °C 34750.5 hPa Calm     71 % 0 mm 0.0 W/m2 CLR
06:27 -15.9 °C -18.4 °C 34750.5 hPa Calm     72 % 0 mm 0.0 W/m2 CLR
06:32 -15.9 °C -18.4 °C 34750.5 hPa Calm     72 % 0 mm 0.0 W/m2 CLR
06:37 -15.9 °C -18.4 °C 34750.5 hPa Calm     72 % 0 mm 0.0 W/m2 CLR
06:42 -15.6 °C -18.3 °C 34760.7 hPa Calm     71 % 0 mm 0.0 W/m2 CLR
06:47 -15.3 °C -17.9 °C 34750.5 hPa Calm     71 % 0 mm 0.0 W/m2 CLR
06:52 -15.3 °C -17.9 °C 34760.7 hPa Calm     71 % 0 mm 0.0 W/m2 CLR
06:57 -15.3 °C -17.9 °C 34760.7 hPa Calm     71 % 0 mm 0.0 W/m2 CLR
07:02 -15.3 °C -17.9 °C 34760.7 hPa Calm     71 % 0 mm 0.0 W/m2 CLR
07:07 -15 °C -17.7 °C 34760.7 hPa Calm     71 % 0 mm 0.0 W/m2 CLR
07:12 -14.7 °C -17.4 °C 34760.7 hPa Calm     71 % 0 mm 0.0 W/m2 CLR
07:17 -14.7 °C -17.4 °C 34760.7 hPa Calm     71 % 0 mm 0.0 W/m2 CLR
07:22 -14.7 °C -17.4 °C 34760.7 hPa Calm     71 % 0 mm 0.0 W/m2 CLR
07:27 -15 °C -17.6 °C 34760.7 hPa Calm     72 % 0 mm 0.0 W/m2 CLR
07:32 -15 °C -17.4 °C 34760.7 hPa Calm     73 % 0 mm 0.0 W/m2 CLR
07:37 -15 °C -17.4 °C 34760.7 hPa Calm     73 % 0 mm 0.0 W/m2 CLR
07:42 -15.3 °C -17.9 °C 34760.7 hPa Calm     72 % 0 mm 0.0 W/m2 CLR
07:47 -15 °C -17.7 °C 34760.7 hPa Calm     71 % 0 mm 0.0 W/m2 CLR
07:52 -15 °C -17.7 °C 34760.7 hPa Calm     71 % 0 mm 0.0 W/m2 CLR
07:57 -15.3 °C -17.9 °C 34760.7 hPa Calm     72 % 0 mm 0.0 W/m2 CLR
08:02 -15.3 °C -17.9 °C 34760.7 hPa Calm     72 % 0 mm 0.0 W/m2 CLR
08:07 -15.6 °C -18.1 °C 34760.7 hPa Calm     73 % 0 mm 0.0 W/m2 CLR
08:12 -15.6 °C -18.1 °C 34760.7 hPa Calm     73 % 0 mm 0.0 W/m2 OVC
08:17 -15.6 °C -17.9 °C 34760.7 hPa Calm     74 % 0 mm 0.0 W/m2 OVC
08:27 -15.6 °C -17.9 °C 34774.2 hPa Calm     75 % 0 mm 7.0 W/m2 BKN
08:32 -15.9 °C -18.3 °C 34774.2 hPa Calm     74 % 0 mm 9.0 W/m2 BKN
08:37 -15.9 °C -18.2 °C 34774.2 hPa Calm     75 % 0 mm 11.0 W/m2 BKN
08:42 -15.9 °C -18.3 °C 34774.2 hPa Calm     74 % 0 mm 12.0 W/m2 BKN
08:47 -15.6 °C -18.1 °C 34774.2 hPa Calm     73 % 0 mm 16.0 W/m2 BKN
08:52 -15.6 °C -18.1 °C 34774.2 hPa Calm     73 % 0 mm 21.0 W/m2 BKN
08:57 -15.6 °C -18.1 °C 34774.2 hPa Calm     73 % 0 mm 32.0 W/m2 BKN
09:02 -15.3 °C -17.8 °C 34774.2 hPa Calm     73 % 0 mm 42.0 W/m2 BKN
09:07 -15 °C -17.4 °C 34784.4 hPa Calm     73 % 0 mm 51.0 W/m2 SCT
09:12 -15 °C -17.7 °C 34784.4 hPa Calm     71 % 0 mm 70.0 W/m2 FEW
09:17 -15 °C -17.7 °C 34784.4 hPa Calm     71 % 0 mm 83.0 W/m2 FEW
09:22 -14.7 °C -17.5 °C 34784.4 hPa Calm     70 % 0 mm 97.0 W/m2 CLR
09:28 -14.7 °C -17.5 °C 34784.4 hPa Calm     70 % 0 mm 116.0 W/m2 CLR
09:33 -14.4 °C -17.3 °C 34784.4 hPa Calm     69 % 0 mm 109.0 W/m2 CLR
09:38 -14.4 °C -17.6 °C 34784.4 hPa Calm     67 % 0 mm 149.0 W/m2 CLR
09:43 -14.1 °C -17.4 °C 34784.4 hPa Calm     65 % 0 mm 167.0 W/m2 CLR
09:48 -14.1 °C -17.6 °C 34797.9 hPa Calm     64 % 0 mm 104.0 W/m2 CLR
09:53 -13.4 °C -17.1 °C 34797.9 hPa Calm     63 % 0 mm 202.0 W/m2 CLR
09:58 -13.4 °C -17.1 °C 34797.9 hPa Calm     63 % 0 mm 220.0 W/m2 CLR
10:03 -13.4 °C -17.5 °C 34797.9 hPa Calm     60 % 0 mm 236.0 W/m2 CLR
10:08 -13.2 °C -17.3 °C 34797.9 hPa Calm     59 % 0 mm 250.0 W/m2 CLR
10:13 -12.8 °C -17.1 °C 34797.9 hPa Calm     59 % 0 mm 269.0 W/m2 CLR
10:18 -12.8 °C -17.3 °C 34784.4 hPa Calm     57 % 0 mm 279.0 W/m2 CLR
10:23 -12.6 °C -17.2 °C 34797.9 hPa Calm     56 % 0 mm 288.0 W/m2 CLR
10:28 -12.2 °C -17 °C 34797.9 hPa Calm     55 % 0 mm 304.0 W/m2 CLR
10:33 -11.9 °C -16.9 °C 34797.9 hPa Calm     54 % 0 mm 316.0 W/m2 CLR
10:38 -11.6 °C -16.6 °C 34797.9 hPa Calm     54 % 0 mm 332.0 W/m2 CLR
10:43 -11.3 °C -16.4 °C 34784.4 hPa Calm     53 % 0 mm 343.0 W/m2 CLR
10:48 -11 °C -16.3 °C 34784.4 hPa Calm     52 % 0 mm 357.0 W/m2 CLR
10:53 -10.7 °C -16.2 °C 34784.4 hPa Calm     51 % 0 mm 371.0 W/m2 CLR
10:58 -10.4 °C -15.9 °C 34784.4 hPa Calm     51 % 0 mm 385.0 W/m2 CLR
11:03 -10.1 °C -15.8 °C 34784.4 hPa Calm     50 % 0 mm 394.0 W/m2 CLR
11:08 -9.8 °C -15.7 °C 34784.4 hPa Calm     49 % 0 mm 408.0 W/m2 CLR
11:13 -9.4 °C -15.5 °C 34784.4 hPa Calm     48 % 0 mm 418.0 W/m2 CLR
11:18 -9.1 °C -15.4 °C 34784.4 hPa Calm     47 % 0 mm 429.0 W/m2 CLR
11:23 -9.1 °C -15.6 °C 34784.4 hPa Calm     46 % 0 mm 439.0 W/m2 CLR
11:28 -8.8 °C -15.7 °C 34784.4 hPa Calm     44 % 0 mm 452.0 W/m2 CLR
11:33 -8.8 °C -15.8 °C 34784.4 hPa Calm     43 % 0 mm 462.0 W/m2 CLR
11:38 -8.5 °C -15.7 °C 34784.4 hPa Calm   2.6 km/h 42 % 0 mm 471.0 W/m2 CLR
11:43 -8.2 °C -15.4 °C 34774.2 hPa NNW 9 km/h 9 km/h 42 % 0 mm 480.0 W/m2 CLR
11:48 -7.9 °C -15.4 °C 34774.2 hPa NNW 9 km/h 9 km/h 41 % 0 mm 478.0 W/m2 CLR
11:53 -7.3 °C -14.6 °C 34774.2 hPa North 9 km/h 9 km/h 42 % 0 mm 490.0 W/m2 CLR
11:58 -7 °C -14.6 °C 34774.2 hPa NNW 9 km/h 9 km/h 41 % 0 mm 506.0 W/m2 CLR
12:03 -7 °C -14.6 °C 34774.2 hPa North 9 km/h 9 km/h 41 % 0 mm 512.0 W/m2 CLR
12:08 -6.7 °C -14.4 °C 34774.2 hPa NW 15 km/h 15 km/h 40 % 0 mm 522.0 W/m2 CLR
12:13 -6.7 °C -14.4 °C 34774.2 hPa NNW 23.3 km/h 23.3 km/h 40 % 0 mm 531.0 W/m2 CLR
12:18 -6.7 °C -14.4 °C 34774.2 hPa NNW 11.9 km/h 11.9 km/h 40 % 0 mm 536.0 W/m2 CLR
12:23 -6.3 °C -14.4 °C 34774.2 hPa NNW 10.3 km/h 10.6 km/h 39 % 0 mm 543.0 W/m2 CLR
12:29 -6.3 °C -14.4 °C 34774.2 hPa North 15 km/h 15 km/h 39 % 0 mm 548.0 W/m2 CLR
12:34 -6.3 °C -14.4 °C 34774.2 hPa NW 20.9 km/h 20.9 km/h 39 % 0 mm 554.0 W/m2 CLR
12:39 -6.1 °C -14.3 °C 34774.2 hPa NNW 23.8 km/h 23.8 km/h 38 % 0 mm 561.0 W/m2 CLR
12:44 -6.1 °C -14.3 °C 34774.2 hPa NNW 23.8 km/h 23.8 km/h 38 % 0 mm 566.0 W/m2 CLR
12:49 -5.7 °C -14.3 °C 34774.2 hPa NW 26.9 km/h 26.9 km/h 37 % 0 mm 570.0 W/m2 CLR
12:54 -5.7 °C -14.3 °C 34774.2 hPa NNW 23.3 km/h 23.3 km/h 37 % 0 mm 575.0 W/m2 CLR
12:59 -5.7 °C -14.3 °C 34774.2 hPa NNW 20.9 km/h 20.9 km/h 37 % 0 mm 578.0 W/m2 CLR
13:04 -5.7 °C -14.5 °C 34774.2 hPa NW 29.8 km/h 29.8 km/h 36 % 0 mm 582.0 W/m2 CLR
13:09 -5.7 °C -14.5 °C 34774.2 hPa NW 20.9 km/h 20.9 km/h 36 % 0 mm 584.0 W/m2 CLR
13:14 -5.7 °C -14.5 °C 34774.2 hPa NW 11.9 km/h 11.9 km/h 36 % 0 mm 587.0 W/m2 CLR
13:19 -5.4 °C -14.4 °C 34760.7 hPa NW 20.9 km/h 20.9 km/h 35 % 0 mm 591.0 W/m2 CLR
13:24 -5.4 °C -14.4 °C 34760.7 hPa NNW 23.8 km/h 23.8 km/h 35 % 0 mm 592.0 W/m2 CLR
13:29 -5.4 °C -14.4 °C 34760.7 hPa North 9 km/h 9 km/h 35 % 0 mm 594.0 W/m2 CLR
13:34 -5.4 °C -14.7 °C 34760.7 hPa NW 11.9 km/h 11.9 km/h 34 % 0 mm 596.0 W/m2 CLR
13:39 -5.4 °C -14.7 °C 34760.7 hPa NNW 15 km/h 15 km/h 34 % 0 mm 596.0 W/m2 CLR
13:44 -5.1 °C -14.4 °C 34750.5 hPa North 15.6 km/h 15.6 km/h 34 % 0 mm 596.0 W/m2 CLR
13:49 -5.1 °C -14.4 °C 34750.5 hPa NW 11.9 km/h 11.9 km/h 34 % 0 mm 596.0 W/m2 CLR
13:54 -4.8 °C -14.3 °C 34750.5 hPa NW 11.9 km/h 11.9 km/h 33 % 0 mm 594.0 W/m2 CLR
13:59 -4.8 °C -14.3 °C 34750.5 hPa NNW 12.9 km/h 12.9 km/h 33 % 0 mm 594.0 W/m2 CLR
14:04 -4.8 °C -14.3 °C 34750.5 hPa NW 23.8 km/h 23.8 km/h 33 % 0 mm 594.0 W/m2 CLR
14:09 -4.8 °C -14.3 °C 34750.5 hPa NW 15 km/h 15 km/h 33 % 0 mm 591.0 W/m2 CLR
14:14 -4.8 °C -14.3 °C 34740.4 hPa NNW 15 km/h 15 km/h 33 % 0 mm 589.0 W/m2 CLR
14:19 -4.5 °C -14.1 °C 34740.4 hPa NW 23.3 km/h 23.3 km/h 33 % 0 mm 587.0 W/m2 CLR
14:24 -4.5 °C -14.1 °C 34740.4 hPa NW 15.6 km/h 15.6 km/h 33 % 0 mm 585.0 W/m2 CLR
14:29 -4.5 °C -14.3 °C 34740.4 hPa WNW 11.9 km/h 11.9 km/h 32 % 0 mm 582.0 W/m2 CLR
14:34 -4.2 °C -13.8 °C 34726.8 hPa NW 26.9 km/h 26.9 km/h 33 % 0 mm 578.0 W/m2 CLR
14:39 -4.2 °C -14.1 °C 34726.8 hPa NNW 20.9 km/h 20.9 km/h 32 % 0 mm 577.0 W/m2 CLR
14:44 -4.2 °C -14.1 °C 34726.8 hPa NW 23.8 km/h 23.8 km/h 32 % 0 mm 570.0 W/m2 CLR
14:49 -4.2 °C -14.1 °C 34726.8 hPa NNW 23.8 km/h 23.8 km/h 32 % 0 mm 566.0 W/m2 CLR
14:54 -4.2 °C -14.3 °C 34716.7 hPa NNW 23.3 km/h 23.3 km/h 31 % 0 mm 561.0 W/m2 CLR
14:59 -4.2 °C -14.3 °C 34716.7 hPa NW 23.8 km/h 23.8 km/h 31 % 0 mm 557.0 W/m2 CLR
15:04 -4.2 °C -14.3 °C 34716.7 hPa NW 26.9 km/h 26.9 km/h 31 % 0 mm 548.0 W/m2 CLR
15:09 -3.9 °C -14.1 °C 34716.7 hPa North 29.8 km/h 29.8 km/h 31 % 0 mm 543.0 W/m2 CLR
15:14 -3.9 °C -14.1 °C 34716.7 hPa WNW 20.9 km/h 20.9 km/h 31 % 0 mm 536.0 W/m2 CLR
15:19 -3.9 °C -14.1 °C 34716.7 hPa NNW 29.8 km/h 29.8 km/h 31 % 0 mm 531.0 W/m2 CLR
15:24 -3.6 °C -13.8 °C 34716.7 hPa NW 23.8 km/h 23.8 km/h 31 % 0 mm 513.0 W/m2 CLR
15:29 -3.9 °C -14.1 °C 34716.7 hPa NW 26.9 km/h 26.9 km/h 31 % 0 mm 501.0 W/m2 CLR
15:34 -3.9 °C -14.1 °C 34716.7 hPa NW 23.8 km/h 23.8 km/h 31 % 0 mm 490.0 W/m2 CLR
15:39 -3.6 °C -13.8 °C 34703.1 hPa NW 20.9 km/h 20.9 km/h 31 % 0 mm 489.0 W/m2 CLR
15:44 -3.6 °C -13.8 °C 34703.1 hPa NW 35.7 km/h 35.7 km/h 31 % 0 mm 482.0 W/m2 CLR
15:49 -3.6 °C -13.8 °C 34703.1 hPa NNW 29.8 km/h 29.8 km/h 31 % 0 mm 475.0 W/m2 CLR
15:54 -3.6 °C -13.8 °C 34703.1 hPa NNW 29.8 km/h 29.8 km/h 31 % 0 mm 466.0 W/m2 CLR
15:59 -3.6 °C -13.8 °C 34703.1 hPa NW 23.8 km/h 23.8 km/h 31 % 0 mm 443.0 W/m2 CLR
16:04 -3.6 °C -13.6 °C 34703.1 hPa NW 23.8 km/h 23.8 km/h 32 % 0 mm 450.0 W/m2 CLR
16:09 -3.6 °C -13.6 °C 34703.1 hPa NNW 31.1 km/h 31.1 km/h 32 % 0 mm 438.0 W/m2 CLR
16:14 -3.6 °C -13.3 °C 34703.1 hPa WNW 23.8 km/h 23.8 km/h 33 % 0 mm 427.0 W/m2 CLR
16:19 -3.6 °C -13.3 °C 34703.1 hPa NW 29.8 km/h 29.8 km/h 33 % 0 mm 415.0 W/m2 CLR
16:24 -3.6 °C -13.6 °C 34703.1 hPa NW 28.5 km/h 28.5 km/h 32 % 0 mm 404.0 W/m2 CLR
16:29 -3.3 °C -13.3 °C 34703.1 hPa NW 23.8 km/h 23.8 km/h 32 % 0 mm 387.0 W/m2 CLR
16:30 -3.3 °C -13.3 °C 34703.1 hPa NNW 23.8 km/h 23.8 km/h 32 % 0 mm 387.0 W/m2 CLR
16:34 -3.6 °C -13.6 °C 34703.1 hPa NW 26.9 km/h 26.9 km/h 32 % 0 mm 367.0 W/m2 CLR
16:39 -3.6 °C -13.6 °C 34703.1 hPa NW 26.9 km/h 26.9 km/h 32 % 0 mm 353.0 W/m2 CLR
16:44 -3.6 °C -13.6 °C 34703.1 hPa North 23.8 km/h 23.8 km/h 32 % 0 mm 302.0 W/m2 CLR
16:50 -3.6 °C -13.6 °C 34703.1 hPa North 20.9 km/h 20.9 km/h 32 % 0 mm 313.0 W/m2 CLR
16:55 -3.9 °C -13.8 °C 34703.1 hPa NW 26.9 km/h 26.9 km/h 32 % 0 mm 315.0 W/m2 CLR
17:00 -3.6 °C -13.3 °C 34703.1 hPa NNW 23.8 km/h 23.8 km/h 33 % 0 mm 297.0 W/m2 CLR
17:05 -3.6 °C -13 °C 34703.1 hPa NW 15 km/h 15 km/h 34 % 0 mm 290.0 W/m2 CLR
17:10 -3.6 °C -13 °C 34703.1 hPa NNW 32.8 km/h 32.8 km/h 34 % 0 mm 278.0 W/m2 CLR
17:15 -3.6 °C -13 °C 34703.1 hPa NW 20.9 km/h 20.9 km/h 34 % 0 mm 269.0 W/m2 CLR
17:20 -3.9 °C -13.3 °C 34703.1 hPa North 11.9 km/h   34 % 0 mm 255.0 W/m2 CLR
17:25 -3.9 °C -13.3 °C 34716.7 hPa NNW 23.8 km/h 23.8 km/h 34 % 0 mm 239.0 W/m2 CLR
17:30 -3.9 °C -13.3 °C 34716.7 hPa NNW 9 km/h 9 km/h 34 % 0 mm 220.0 W/m2 CLR
17:35 -3.9 °C -13.3 °C 34716.7 hPa NNE 9 km/h 9 km/h 34 % 0 mm 202.0 W/m2 CLR
17:40 -4.2 °C -13.6 °C 34716.7 hPa NNE 15 km/h 15 km/h 34 % 0 mm 188.0 W/m2 CLR
17:45 -4.2 °C -13.3 °C 34716.7 hPa NNE 9 km/h 9 km/h 35 % 0 mm 176.0 W/m2 CLR
17:50 -4.2 °C -13.1 °C 34716.7 hPa NE 17.9 km/h 17.9 km/h 36 % 0 mm 160.0 W/m2 CLR
17:55 -4.5 °C -13.4 °C 34716.7 hPa NE 18.2 km/h 18.2 km/h 36 % 0 mm 142.0 W/m2 CLR
18:00 -4.8 °C -13.4 °C 34716.7 hPa NNE 15 km/h 15 km/h 37 % 0 mm 121.0 W/m2 CLR
18:05 -4.8 °C -13.2 °C 34716.7 hPa North 9 km/h 9 km/h 38 % 0 mm 105.0 W/m2 CLR
18:10 -4.8 °C -12.4 °C 34716.7 hPa NE 12.9 km/h 12.9 km/h 42 % 0 mm 86.0 W/m2 CLR
18:15 -4.8 °C -12.2 °C 34716.7 hPa NNE 9 km/h 9 km/h 43 % 0 mm 65.0 W/m2 SCT
18:20 -5.4 °C -12.4 °C 34716.7 hPa NE 17.9 km/h 17.9 km/h 45 % 0 mm 54.0 W/m2 SCT
18:25 -5.4 °C -12.2 °C 34716.7 hPa NE 6 km/h 6 km/h 46 % 0 mm 47.0 W/m2 SCT
18:30 -5.7 °C -12.3 °C 34716.7 hPa Calm     47 % 0 mm 39.0 W/m2 BKN
18:35 -6.3 °C -12.7 °C 34716.7 hPa Calm     48 % 0 mm 28.0 W/m2 BKN
18:40 -6.7 °C -12.8 °C 34716.7 hPa Calm     49 % 0 mm 21.0 W/m2 BKN
18:45 -7.3 °C -13.4 °C 34726.8 hPa Calm     49 % 0 mm 16.0 W/m2 BKN
18:50 -7.6 °C -13.5 °C 34716.7 hPa Calm     50 % 0 mm 12.0 W/m2 BKN
18:55 -7.9 °C -13.8 °C 34726.8 hPa Calm     50 % 0 mm 11.0 W/m2 BKN
19:00 -8.2 °C -13.9 °C 34726.8 hPa Calm     51 % 0 mm 7.0 W/m2 BKN
19:05 -8.5 °C -14 °C 34726.8 hPa Calm     52 % 0 mm 0.0 W/m2 OVC
19:10 -8.8 °C -14.2 °C 34726.8 hPa Calm     53 % 0 mm 0.0 W/m2 OVC
19:15 -8.8 °C -14.2 °C 34726.8 hPa Calm     53 % 0 mm 0.0 W/m2 CLR
19:20 -9.1 °C -14.4 °C 34726.8 hPa Calm     53 % 0 mm 0.0 W/m2 CLR
19:25 -9.1 °C -14.3 °C 34740.4 hPa Calm     54 % 0 mm 0.0 W/m2 CLR
19:30 -9.4 °C -14.3 °C 34740.4 hPa Calm     56 % 0 mm 0.0 W/m2 CLR
19:35 -9.4 °C -14.3 °C 34740.4 hPa Calm     56 % 0 mm 0.0 W/m2 CLR
19:40 -9.4 °C -14.3 °C 34740.4 hPa Calm     56 % 0 mm 0.0 W/m2 CLR
19:45 -9.1 °C -14 °C 34740.4 hPa Calm     56 % 0 mm 0.0 W/m2 CLR
19:50 -8.8 °C -13.6 °C 34740.4 hPa Calm     57 % 0 mm 0.0 W/m2 CLR
19:55 -8.8 °C -13.4 °C 34740.4 hPa Calm     58 % 0 mm 0.0 W/m2 CLR
20:00 -8.8 °C -13.3 °C 34740.4 hPa Calm     59 % 0 mm 0.0 W/m2 CLR
20:05 -8.8 °C -13.2 °C 34740.4 hPa Calm     60 % 0 mm 0.0 W/m2 CLR
20:10 -8.8 °C -13.2 °C 34740.4 hPa Calm     60 % 0 mm 0.0 W/m2 CLR
20:15 -8.8 °C -13.2 °C 34750.5 hPa Calm     60 % 0 mm 0.0 W/m2 CLR
20:20 -9.1 °C -13.4 °C 34750.5 hPa Calm     60 % 0 mm 0.0 W/m2 CLR
20:25 -9.4 °C -13.6 °C 34750.5 hPa Calm     61 % 0 mm 0.0 W/m2 CLR
20:30 -9.8 °C -13.8 °C 34750.5 hPa Calm     62 % 0 mm 0.0 W/m2 CLR
20:35 -9.8 °C -13.8 °C 34750.5 hPa Calm     62 % 0 mm 0.0 W/m2 CLR
20:40 -10.1 °C -14.1 °C 34750.5 hPa Calm     62 % 0 mm 0.0 W/m2 CLR
20:45 -10.1 °C -14.1 °C 34760.7 hPa Calm     62 % 0 mm 0.0 W/m2 CLR
20:50 -10.4 °C -14.2 °C 34760.7 hPa Calm     63 % 0 mm 0.0 W/m2 CLR
20:55 -10.4 °C -14.2 °C 34760.7 hPa Calm     63 % 0 mm 0.0 W/m2 CLR
21:00 -10.7 °C -14.5 °C 34760.7 hPa Calm     63 % 0 mm 0.0 W/m2 CLR
21:05 -11 °C -14.7 °C 34760.7 hPa Calm     64 % 0 mm 0.0 W/m2 CLR
21:10 -11 °C -14.7 °C 34760.7 hPa Calm     64 % 0 mm 0.0 W/m2 CLR
21:15 -11.3 °C -14.9 °C 34760.7 hPa Calm     64 % 0 mm 0.0 W/m2 CLR
21:20 -11.6 °C -15.1 °C 34760.7 hPa Calm     65 % 0 mm 0.0 W/m2 CLR
21:25 -11.6 °C -15.1 °C 34774.2 hPa Calm     65 % 0 mm 0.0 W/m2 CLR
21:30 -11.6 °C -15 °C 34774.2 hPa Calm     66 % 0 mm 0.0 W/m2 CLR
21:35 -11.9 °C -15.3 °C 34774.2 hPa Calm     66 % 0 mm 0.0 W/m2 CLR
21:40 -11.9 °C -15.1 °C 34774.2 hPa Calm     68 % 0 mm 0.0 W/m2 CLR
21:45 -11.9 °C -15.1 °C 34774.2 hPa Calm     68 % 0 mm 0.0 W/m2 CLR
21:50 -11.9 °C -15.1 °C 34774.2 hPa Calm     68 % 0 mm 0.0 W/m2 CLR
21:55 -11.9 °C -15.1 °C 34774.2 hPa Calm     68 % 0 mm 0.0 W/m2 CLR
22:00 -11.9 °C -15.1 °C 34774.2 hPa Calm     68 % 0 mm 0.0 W/m2 CLR
22:05 -11.9 °C -14.9 °C 34784.4 hPa Calm     69 % 0 mm 0.0 W/m2 CLR
22:10 -11.6 °C -14.6 °C 34774.2 hPa Calm     70 % 0 mm 0.0 W/m2 CLR
22:15 -11.6 °C -14.6 °C 34784.4 hPa Calm     70 % 0 mm 0.0 W/m2 CLR
22:20 -11.9 °C -14.8 °C 34784.4 hPa Calm     70 % 0 mm 0.0 W/m2 CLR
22:25 -11.9 °C -14.8 °C 34784.4 hPa Calm     70 % 0 mm 0.0 W/m2 CLR
22:30 -11.9 °C -14.8 °C 34784.4 hPa Calm     70 % 0 mm 0.0 W/m2 CLR
22:35 -11.9 °C -14.8 °C 34784.4 hPa Calm     70 % 0 mm 0.0 W/m2 CLR
22:40 -12.2 °C -14.9 °C 34797.9 hPa Calm     72 % 0 mm 0.0 W/m2 CLR
23:06 -12.2 °C -14.9 °C 34797.9 hPa Calm     72 % 0 mm 0.0 W/m2 CLR
23:11 -12.2 °C -15 °C 34797.9 hPa Calm     71 % 0 mm 0.0 W/m2 CLR
23:16 -12.6 °C -15.2 °C 34797.9 hPa Calm     72 % 0 mm 0.0 W/m2 CLR
23:21 -12.6 °C -15.2 °C 34797.9 hPa Calm     72 % 0 mm 0.0 W/m2 CLR
23:26 -12.8 °C -15.5 °C 34797.9 hPa Calm     72 % 0 mm 0.0 W/m2 CLR
23:31 -12.8 °C -15.5 °C 34808.1 hPa Calm     72 % 0 mm 0.0 W/m2 CLR
23:36 -12.8 °C -15.5 °C 34808.1 hPa Calm     72 % 0 mm 0.0 W/m2 CLR
23:41 -12.8 °C -15.5 °C 34808.1 hPa Calm     72 % 0 mm 0.0 W/m2 CLR
23:46 -12.8 °C -15.4 °C 34808.1 hPa Calm     73 % 0 mm 0.0 W/m2 CLR
23:51 -12.8 °C -15.3 °C 34808.1 hPa Calm     74 % 0 mm 0.0 W/m2 CLR
23:56 -12.8 °C -15.3 °C 34808.1 hPa Calm     74 % 0 mm 0.0 W/m2 CLR
Lo Temps de Massalio
Compliments of Weather Underground - 1.25 mb